Time;durP1;ratioP1;P1;durP2;ratioP2;P2;SDS_P1;SDS_P2;PMS_P1;PMS_P2;Temp;Humidity;BMP_temperature;BMP_pressure;BME280_temperature;BME280_humidity;BME280_pressure;Samples;Min_cycle;Max_cycle;Signal;HPM_P1;HPM_P2
2022/07/05 00:00:07;;;;;;;5.13;1.75;;;;;;;18.95;65.55;99782.91;343022;28;1292;-81
2022/07/05 00:00:19;;;;;;;4.85;1.70;;;;;;;18.95;65.37;99777.66;342979;28;1016;-81
2022/07/05 00:00:31;;;;;;;5.15;1.75;;;;;;;18.96;65.52;99784.63;342938;28;1001;-81
2022/07/05 00:00:44;;;;;;;4.05;1.80;;;;;;;18.94;65.02;99786.50;344568;28;740;-81
2022/07/05 00:00:56;;;;;;;4.03;1.85;;;;;;;18.94;65.40;99786.50;344273;28;3568;-81
2022/07/05 00:01:08;;;;;;;3.40;1.98;;;;;;;18.91;65.29;99781.44;346152;28;1962;-81
2022/07/05 00:01:20;;;;;;;2.40;1.90;;;;;;;18.91;65.75;99782.31;346009;28;1195;-81
2022/07/05 00:01:32;;;;;;;2.63;1.80;;;;;;;18.92;65.76;99783.97;346198;28;755;-81
2022/07/05 00:01:44;;;;;;;3.97;1.63;;;;;;;18.92;65.17;99777.88;346099;28;1070;-81
2022/07/05 00:01:56;;;;;;;4.65;1.70;;;;;;;18.92;65.48;99785.78;343758;28;1418;-81
2022/07/05 00:02:08;;;;;;;3.78;1.63;;;;;;;18.92;65.33;99788.41;344117;28;1130;-81
2022/07/05 00:02:21;;;;;;;2.20;1.70;;;;;;;18.92;65.56;99785.78;345539;28;894;-81
2022/07/05 00:02:33;;;;;;;2.60;1.70;;;;;;;18.94;65.43;99783.88;343608;28;1039;-81
2022/07/05 00:02:45;;;;;;;2.20;1.58;;;;;;;18.92;65.22;99785.78;342940;28;1450;-81
2022/07/05 00:02:58;;;;;;;1.92;1.50;;;;;;;18.92;64.90;99783.13;343245;28;1160;-81
2022/07/05 00:03:10;;;;;;;2.22;1.52;;;;;;;18.93;64.64;99784.81;344440;28;1043;-81
2022/07/05 00:03:22;;;;;;;2.90;1.70;;;;;;;18.91;64.76;99781.44;344986;28;1161;-81
2022/07/05 00:03:35;;;;;;;3.92;1.90;;;;;;;18.86;64.63;99784.38;345105;28;1268;-81
2022/07/05 00:03:47;;;;;;;4.10;1.90;;;;;;;18.85;64.80;99784.47;344599;28;1948;-81
2022/07/05 00:03:59;;;;;;;4.70;1.85;;;;;;;18.82;64.40;99785.53;344776;28;1665;-81
2022/07/05 00:04:11;;;;;;;3.72;1.63;;;;;;;18.79;64.35;99783.06;345455;28;1111;-81
2022/07/05 00:04:23;;;;;;;3.42;1.60;;;;;;;18.80;64.39;99789.22;345506;28;1372;-81
2022/07/05 00:04:35;;;;;;;3.38;1.50;;;;;;;18.76;64.51;99778.81;345632;28;1218;-81
2022/07/05 00:04:47;;;;;;;3.83;1.58;;;;;;;18.66;64.53;99790.06;345638;28;1167;-81
2022/07/05 00:04:59;;;;;;;3.47;1.63;;;;;;;18.67;64.79;99795.22;345449;28;1266;-81
2022/07/05 00:05:11;;;;;;;2.22;1.70;;;;;;;18.66;64.88;99793.53;345789;28;752;-81
2022/07/05 00:05:23;;;;;;;2.10;1.60;;;;;;;18.62;64.98;99786.75;346897;28;1035;-81
2022/07/05 00:05:36;;;;;;;2.47;1.70;;;;;;;18.63;64.86;99792.88;346052;28;2068;-81
2022/07/05 00:05:48;;;;;;;2.17;1.60;;;;;;;18.59;65.37;99797.47;345816;28;1291;-81
2022/07/05 00:06:00;;;;;;;3.10;1.60;;;;;;;18.59;64.99;99791.38;345073;28;1255;-81
2022/07/05 00:06:12;;;;;;;4.45;1.70;;;;;;;18.57;65.18;99788.84;344186;28;839;-81
2022/07/05 00:06:24;;;;;;;5.63;1.75;;;;;;;18.51;65.08;99781.31;342542;28;1023;-81
2022/07/05 00:06:36;;;;;;;5.78;1.75;;;;;;;18.53;65.29;99787.34;341759;29;750;-81
2022/07/05 00:07:18;;;;;;;3.17;1.60;;;;;;;18.54;65.36;99786.41;341452;29;1181;-81
2022/07/05 00:07:30;;;;;;;3.38;1.60;;;;;;;18.54;65.19;99795.16;341533;29;1198;-80
2022/07/05 00:07:42;;;;;;;3.80;1.60;;;;;;;18.55;65.51;99791.59;341566;29;750;-80
2022/07/05 00:07:54;;;;;;;4.47;1.58;;;;;;;18.53;65.76;99788.22;340385;29;843;-80
2022/07/05 00:08:07;;;;;;;2.78;1.60;;;;;;;18.50;65.51;99787.56;340962;29;1180;-80
2022/07/05 00:08:19;;;;;;;3.33;1.70;;;;;;;18.49;65.34;99786.72;342495;28;1141;-80
2022/07/05 00:08:32;;;;;;;6.25;1.80;;;;;;;18.36;65.60;99791.88;342628;28;1038;-81
2022/07/05 00:08:44;;;;;;;6.57;1.80;;;;;;;18.32;66.12;99793.03;343542;28;1172;-81
2022/07/05 00:08:56;;;;;;;5.35;1.77;;;;;;;18.34;66.24;99793.78;342886;28;1054;-81
2022/07/05 00:09:08;;;;;;;4.68;2.00;;;;;;;18.38;66.31;99785.69;341341;29;1138;-81
2022/07/05 00:09:20;;;;;;;4.13;2.00;;;;;;;18.39;65.95;99790.88;341354;29;1392;-81
2022/07/05 00:09:32;;;;;;;4.43;1.90;;;;;;;18.40;65.79;99791.72;341894;29;1103;-81
2022/07/05 00:09:56;;;;;;;2.83;1.50;;;;;;;18.41;65.74;99789.00;343421;28;817;-81
2022/07/05 00:10:08;;;;;;;3.50;1.63;;;;;;;18.42;65.74;99789.81;344135;28;1159;-81
2022/07/05 00:10:20;;;;;;;3.30;1.60;;;;;;;18.41;65.66;99788.13;343000;28;1247;-81
2022/07/05 00:10:33;;;;;;;3.53;1.60;;;;;;;18.41;65.67;99789.00;342030;29;762;-81
2022/07/05 00:10:46;;;;;;;2.70;1.50;;;;;;;18.43;65.49;99788.88;341659;29;777;-81
2022/07/05 00:10:58;;;;;;;2.45;1.42;;;;;;;18.43;65.66;99795.00;342791;28;1248;-81
2022/07/05 00:11:10;;;;;;;4.15;1.45;;;;;;;18.44;65.70;99791.41;345739;28;728;-81
2022/07/05 00:11:22;;;;;;;5.63;1.50;;;;;;;18.46;65.55;99796.59;345710;28;1102;-81
2022/07/05 00:11:34;;;;;;;5.88;1.77;;;;;;;18.45;65.54;99785.22;343741;28;1783;-81
2022/07/05 00:11:46;;;;;;;2.70;1.80;;;;;;;18.45;65.74;99784.34;344410;28;1550;-81
2022/07/05 00:11:58;;;;;;;3.75;2.00;;;;;;;18.43;65.81;99792.38;345179;28;2251;-81
2022/07/05 00:12:12;;;;;;;3.92;2.03;;;;;;;18.43;65.72;99788.88;344782;28;1670;-81
2022/07/05 00:12:28;;;;;;;3.78;1.80;;;;;;;18.43;65.83;99787.09;345385;28;850;-81
2022/07/05 00:12:40;;;;;;;3.38;1.63;;;;;;;18.44;65.93;99795.84;346624;28;1060;-81
2022/07/05 00:12:52;;;;;;;3.75;1.73;;;;;;;18.44;65.99;99787.94;345199;28;1728;-81
2022/07/05 00:13:05;;;;;;;3.22;1.60;;;;;;;18.40;65.91;99796.97;346714;28;951;-81
2022/07/05 00:13:17;;;;;;;3.45;1.67;;;;;;;18.39;65.64;99784.75;346907;28;989;-81
2022/07/05 00:13:29;;;;;;;4.00;1.80;;;;;;;18.35;65.49;99790.22;345005;28;1423;-81
2022/07/05 00:13:41;;;;;;;3.67;1.77;;;;;;;18.35;65.53;99795.47;344057;28;1084;-81
2022/07/05 00:13:53;;;;;;;3.10;1.75;;;;;;;18.33;65.63;99791.22;344168;28;1074;-81
2022/07/05 00:14:05;;;;;;;3.70;1.80;;;;;;;18.32;65.71;99789.56;345600;28;1239;-81
2022/07/05 00:14:17;;;;;;;3.53;1.70;;;;;;;18.35;65.28;99794.59;345728;28;1147;-81
2022/07/05 00:14:30;;;;;;;3.30;1.70;;;;;;;18.36;65.29;99791.88;344403;28;1263;-81
2022/07/05 00:14:43;;;;;;;2.55;1.65;;;;;;;18.38;65.53;99790.97;344599;28;1181;-81
2022/07/05 00:14:56;;;;;;;1.95;1.70;;;;;;;18.41;65.42;99793.38;345912;28;1071;-81
2022/07/05 00:15:08;;;;;;;4.72;1.75;;;;;;;18.42;65.53;99785.41;344774;28;821;-81
2022/07/05 00:15:20;;;;;;;5.70;1.70;;;;;;;18.43;65.63;99789.72;344225;28;1046;-81
2022/07/05 00:15:32;;;;;;;4.97;1.60;;;;;;;18.41;66.16;99790.75;343960;28;1188;-81
2022/07/05 00:15:44;;;;;;;2.20;1.60;;;;;;;18.41;66.05;99794.25;344509;28;757;-81
2022/07/05 00:15:57;;;;;;;2.42;1.63;;;;;;;18.43;65.79;99791.50;343809;28;1219;-81
2022/07/05 00:16:09;;;;;;;3.25;1.73;;;;;;;18.44;65.72;99787.94;343937;28;1472;-81
2022/07/05 00:16:21;;;;;;;3.65;1.80;;;;;;;18.45;65.93;99787.84;343870;28;1197;-81
2022/07/05 00:16:33;;;;;;;4.20;1.75;;;;;;;18.46;65.72;99792.16;342665;28;1384;-81
2022/07/05 00:16:45;;;;;;;3.67;1.70;;;;;;;18.48;65.67;99789.44;342649;28;1571;-81
2022/07/05 00:16:57;;;;;;;4.32;1.80;;;;;;;18.47;65.76;99787.72;342953;28;1563;-81
2022/07/05 00:17:10;;;;;;;4.50;1.80;;;;;;;18.42;65.99;99790.66;344111;28;1722;-81
2022/07/05 00:17:22;;;;;;;3.40;1.70;;;;;;;18.40;66.29;99791.72;345668;28;779;-81
2022/07/05 00:17:34;;;;;;;2.70;1.60;;;;;;;18.36;65.92;99789.25;345691;28;1626;-81
2022/07/05 00:17:46;;;;;;;3.33;1.80;;;;;;;18.37;65.65;99787.47;344051;28;1673;-81
2022/07/05 00:17:58;;;;;;;4.05;1.80;;;;;;;18.35;66.34;99795.47;344517;28;1246;-81
2022/07/05 00:18:10;;;;;;;4.45;1.85;;;;;;;18.30;66.89;99791.44;345549;28;1101;-81
2022/07/05 00:18:22;;;;;;;3.67;1.90;;;;;;;18.27;66.56;99787.22;342792;28;1590;-81
2022/07/05 00:18:34;;;;;;;4.15;1.92;;;;;;;18.29;66.69;99790.59;342880;28;1143;-81
2022/07/05 00:18:46;;;;;;;3.63;1.85;;;;;;;18.31;66.87;99795.75;344037;28;1616;-81
2022/07/05 00:18:58;;;;;;;3.45;1.73;;;;;;;18.30;66.34;99792.28;344309;28;1685;-81
2022/07/05 00:19:10;;;;;;;3.08;1.80;;;;;;;18.33;66.15;99793.84;342838;28;3311;-81
2022/07/05 00:19:22;;;;;;;2.78;1.80;;;;;;;18.32;66.30;99795.66;344505;28;3849;-81
2022/07/05 00:19:34;;;;;;;1.98;1.70;;;;;;;18.35;66.00;99790.22;344465;28;1164;-81
2022/07/05 00:19:46;;;;;;;2.85;1.65;;;;;;;18.34;66.21;99788.50;344355;28;3675;-81
2022/07/05 00:19:58;;;;;;;3.42;1.77;;;;;;;18.35;66.53;99787.59;345975;28;1441;-81
2022/07/05 00:20:10;;;;;;;3.90;1.95;;;;;;;18.36;66.69;99788.41;345423;28;1748;-81
2022/07/05 00:20:22;;;;;;;3.53;2.00;;;;;;;18.38;66.73;99788.31;344534;28;1043;-81
2022/07/05 00:20:34;;;;;;;3.28;1.90;;;;;;;18.39;66.64;99795.25;345755;28;1124;-81
2022/07/05 00:20:46;;;;;;;3.25;1.80;;;;;;;18.37;66.70;99787.47;344143;28;1687;-81
2022/07/05 00:20:59;;;;;;;3.75;1.75;;;;;;;18.35;67.38;99789.34;343745;28;1584;-81
2022/07/05 00:21:11;;;;;;;3.83;1.90;;;;;;;18.32;67.15;99790.38;343516;28;3084;-81
2022/07/05 00:21:23;;;;;;;3.13;1.98;;;;;;;18.30;67.14;99791.44;342983;28;823;-81
2022/07/05 00:21:34;;;;;;;2.58;1.90;;;;;;;18.28;67.27;99794.16;343153;28;718;-81
2022/07/05 00:21:46;;;;;;;3.05;1.95;;;;;;;18.31;67.40;99791.34;342362;28;1908;-81
2022/07/05 00:21:58;;;;;;;3.30;1.90;;;;;;;18.33;66.99;99797.34;341999;28;1625;-81
2022/07/05 00:22:10;;;;;;;2.60;1.80;;;;;;;18.35;67.05;99789.34;342013;28;1036;-81
2022/07/05 00:22:22;;;;;;;2.40;1.70;;;;;;;18.38;67.20;99793.59;344487;28;1067;-81
2022/07/05 00:22:41;;;;;;;2.50;1.55;;;;;;;18.38;67.21;99794.44;344411;28;1107;-81
2022/07/05 00:22:53;;;;;;;2.40;1.50;;;;;;;18.39;67.01;99790.00;343551;28;1989;-81
2022/07/05 00:23:05;;;;;;;2.30;1.48;;;;;;;18.41;66.99;99786.34;343335;28;1431;-81
2022/07/05 00:23:17;;;;;;;3.53;1.50;;;;;;;18.43;66.80;99786.22;344152;28;1091;-81
2022/07/05 00:23:29;;;;;;;5.40;1.42;;;;;;;18.44;66.54;99787.94;343951;28;1703;-81
2022/07/05 00:23:41;;;;;;;5.38;1.50;;;;;;;18.45;66.52;99797.50;341930;28;1651;-81
2022/07/05 00:23:53;;;;;;;4.85;1.70;;;;;;;18.45;66.18;99789.63;342568;28;1496;-81
2022/07/05 00:24:05;;;;;;;3.80;1.70;;;;;;;18.43;66.12;99791.50;343230;28;1143;-81
2022/07/05 00:24:17;;;;;;;2.92;1.70;;;;;;;18.43;66.22;99795.00;342507;28;1342;-81
2022/07/05 00:24:29;;;;;;;3.42;1.67;;;;;;;18.43;66.38;99792.38;341175;28;1796;-81
2022/07/05 00:24:41;;;;;;;4.30;1.83;;;;;;;18.43;66.18;99787.09;343525;28;757;-81
2022/07/05 00:24:54;;;;;;;4.80;1.90;;;;;;;18.43;66.40;99791.50;342685;28;1717;-80
2022/07/05 00:25:06;;;;;;;3.63;1.80;;;;;;;18.43;66.29;99794.13;341658;29;1651;-80
2022/07/05 00:25:18;;;;;;;3.97;1.80;;;;;;;18.42;66.73;99795.09;341815;28;1275;-80
2022/07/05 00:25:30;;;;;;;4.38;1.70;;;;;;;18.41;66.65;99796.00;341794;28;973;-80
2022/07/05 00:25:42;;;;;;;4.03;1.70;;;;;;;18.42;66.78;99795.09;343175;28;1019;-80
2022/07/05 00:25:54;;;;;;;3.03;1.63;;;;;;;18.43;66.70;99789.72;344429;28;1804;-80
2022/07/05 00:26:07;;;;;;;3.40;1.65;;;;;;;18.47;66.58;99785.09;344961;28;1740;-80
2022/07/05 00:26:19;;;;;;;3.85;1.70;;;;;;;18.48;65.99;99785.00;345369;28;1199;-80
2022/07/05 00:26:31;;;;;;;3.70;1.50;;;;;;;18.50;66.14;99787.56;345103;28;1193;-80
2022/07/05 00:26:43;;;;;;;2.30;1.40;;;;;;;18.52;65.90;99783.03;341605;28;1362;-80
2022/07/05 00:26:55;;;;;;;1.67;1.50;;;;;;;18.53;66.03;99789.97;342856;28;1194;-80
2022/07/05 00:27:07;;;;;;;2.05;1.60;;;;;;;18.54;65.70;99789.88;342030;28;1083;-80
2022/07/05 00:27:19;;;;;;;2.63;1.55;;;;;;;18.55;65.52;99786.31;342127;29;750;-80
2022/07/05 00:27:31;;;;;;;2.65;1.60;;;;;;;18.54;65.07;99786.41;341720;29;1028;-80
2022/07/05 00:27:43;;;;;;;2.83;1.50;;;;;;;18.53;65.27;99787.34;340986;29;1036;-80
2022/07/05 00:27:55;;;;;;;4.15;1.58;;;;;;;18.54;65.23;99789.03;341540;29;1239;-80
2022/07/05 00:28:07;;;;;;;4.97;1.65;;;;;;;18.53;65.02;99789.97;341671;29;1041;-80
2022/07/05 00:28:19;;;;;;;4.05;1.70;;;;;;;18.53;64.91;99787.34;342855;28;1036;-80
2022/07/05 00:28:31;;;;;;;3.13;1.70;;;;;;;18.52;65.04;99790.94;343033;28;1031;-80
2022/07/05 00:28:43;;;;;;;4.13;1.75;;;;;;;18.51;65.02;99791.84;343890;28;1027;-80
2022/07/05 00:28:55;;;;;;;4.68;1.70;;;;;;;18.51;65.14;99784.81;343641;28;1173;-80
2022/07/05 00:29:07;;;;;;;3.72;1.67;;;;;;;18.52;65.25;99790.94;342367;28;1720;-80
2022/07/05 00:29:19;;;;;;;3.50;1.70;;;;;;;18.52;65.13;99790.94;342498;28;1032;-80
2022/07/05 00:29:31;;;;;;;3.63;1.70;;;;;;;18.52;64.85;99790.94;342701;28;1028;-80
2022/07/05 00:29:44;;;;;;;3.95;1.65;;;;;;;18.51;64.61;99784.81;344181;28;1023;-80
2022/07/05 00:29:57;;;;;;;2.83;1.70;;;;;;;18.52;64.76;99789.13;343695;28;1491;-80
2022/07/05 00:30:10;;;;;;;2.75;1.63;;;;;;;18.53;64.63;99787.34;344956;28;1586;-80
2022/07/05 00:30:22;;;;;;;3.50;1.70;;;;;;;18.54;64.82;99794.31;345954;28;848;-80
2022/07/05 00:30:34;;;;;;;3.92;1.80;;;;;;;18.52;64.80;99790.94;345661;28;852;-80
2022/07/05 00:30:46;;;;;;;3.30;1.63;;;;;;;18.52;65.00;99789.13;345759;28;2026;-80
2022/07/05 00:30:58;;;;;;;3.25;1.60;;;;;;;18.52;65.16;99796.19;346419;28;1519;-80
2022/07/05 00:31:10;;;;;;;1.90;1.45;;;;;;;18.52;65.17;99790.94;346992;28;846;-80
2022/07/05 00:31:22;;;;;;;3.70;1.60;;;;;;;18.48;65.32;99789.44;346764;28;1073;-80
2022/07/05 00:31:35;;;;;;;4.60;1.90;;;;;;;18.47;65.21;99798.25;346387;28;1087;-80
2022/07/05 00:31:47;;;;;;;2.58;1.88;;;;;;;18.45;65.05;99794.88;346766;28;1728;-80
2022/07/05 00:31:59;;;;;;;3.92;1.83;;;;;;;18.45;65.05;99789.63;345909;28;1794;-80
2022/07/05 00:32:11;;;;;;;4.40;1.80;;;;;;;18.42;65.03;99789.81;346860;28;1016;-80
2022/07/05 00:32:23;;;;;;;6.43;1.90;;;;;;;18.35;65.13;99790.22;345788;28;1195;-80
2022/07/05 00:32:36;;;;;;;5.70;2.00;;;;;;;18.31;65.96;99793.09;345453;28;1685;-80
2022/07/05 00:32:48;;;;;;;6.65;2.08;;;;;;;18.26;65.71;99790.78;346320;28;1648;-80
2022/07/05 00:33:00;;;;;;;4.60;1.98;;;;;;;18.25;65.61;99788.22;345780;28;1930;-80
2022/07/05 00:33:12;;;;;;;5.50;1.90;;;;;;;18.23;65.80;99787.47;345522;28;1036;-80
2022/07/05 00:33:24;;;;;;;4.32;1.90;;;;;;;18.22;65.58;99786.63;345348;28;1261;-80
2022/07/05 00:33:36;;;;;;;4.07;1.85;;;;;;;18.24;66.49;99787.38;345830;28;1175;-80
2022/07/05 00:33:48;;;;;;;3.80;1.73;;;;;;;18.24;66.38;99787.38;344475;28;1692;-80
2022/07/05 00:34:00;;;;;;;4.18;1.75;;;;;;;18.24;66.15;99787.38;344856;28;1213;-80
2022/07/05 00:34:13;;;;;;;4.07;1.83;;;;;;;18.15;66.13;99788.81;344263;28;887;-80
2022/07/05 00:34:25;;;;;;;5.78;2.00;;;;;;;18.16;66.11;99787.03;344486;28;1623;-80
2022/07/05 00:34:37;;;;;;;4.80;1.80;;;;;;;18.17;66.24;99786.09;344558;28;1598;-80
2022/07/05 00:34:50;;;;;;;4.40;1.80;;;;;;;18.18;65.81;99787.78;344735;28;1543;-80
2022/07/05 00:35:04;;;;;;;3.00;1.70;;;;;;;18.16;65.76;99787.88;345103;28;1379;-80
2022/07/05 00:35:15;;;;;;;4.20;1.70;;;;;;;18.14;65.83;99792.38;346426;28;788;-80
2022/07/05 00:35:28;;;;;;;4.40;1.63;;;;;;;18.15;65.78;99787.97;345970;28;1800;-80
2022/07/05 00:35:40;;;;;;;3.47;1.60;;;;;;;18.16;65.97;99785.22;344928;28;725;-80
2022/07/05 00:35:52;;;;;;;2.53;1.58;;;;;;;18.16;65.76;99785.22;344783;28;1827;-80
2022/07/05 00:36:04;;;;;;;3.30;1.60;;;;;;;18.15;65.71;99782.72;344690;28;1359;-81
2022/07/05 00:36:16;;;;;;;3.65;1.80;;;;;;;18.13;66.11;99784.59;344790;28;1043;-81
2022/07/05 00:36:28;;;;;;;2.22;1.73;;;;;;;18.14;66.18;99787.13;345341;28;1095;-81
2022/07/05 00:36:46;;;;;;;2.85;1.80;;;;;;;18.15;66.61;99794.06;344391;28;1770;-81
2022/07/05 00:36:58;;;;;;;5.40;2.05;;;;;;;18.16;66.43;99792.28;345477;28;1808;-81
2022/07/05 00:37:11;;;;;;;5.13;2.10;;;;;;;18.14;65.88;99794.16;344269;28;920;-81
2022/07/05 00:37:23;;;;;;;3.90;2.20;;;;;;;18.13;66.01;99792.50;343803;28;2873;-81
2022/07/05 00:37:35;;;;;;;3.65;2.10;;;;;;;18.09;66.18;99788.34;344134;28;1023;-80
2022/07/05 00:37:47;;;;;;;3.35;1.90;;;;;;;18.05;66.13;99792.09;344340;28;1702;-80
2022/07/05 00:37:59;;;;;;;4.50;1.95;;;;;;;18.03;66.26;99793.97;344919;28;949;-80
2022/07/05 00:38:10;;;;;;;4.90;2.00;;;;;;;18.01;66.24;99791.47;344653;28;953;-80
2022/07/05 00:38:23;;;;;;;4.00;1.75;;;;;;;18.04;66.00;99795.69;342628;28;730;-80
2022/07/05 00:38:35;;;;;;;2.28;1.63;;;;;;;18.04;66.76;99793.03;344680;28;1834;-80
2022/07/05 00:38:47;;;;;;;2.60;1.67;;;;;;;18.08;66.52;99791.91;343850;28;1599;-80
2022/07/05 00:39:00;;;;;;;3.25;1.80;;;;;;;18.07;67.09;99790.22;343568;28;1176;-80
2022/07/05 00:39:12;;;;;;;4.38;1.90;;;;;;;18.03;67.15;99788.72;343925;28;1068;-80
2022/07/05 00:39:26;;;;;;;3.70;1.88;;;;;;;18.05;66.99;99786.84;344303;28;1166;-80
2022/07/05 00:39:38;;;;;;;3.10;1.70;;;;;;;18.09;67.04;99796.22;345636;28;1209;-80
2022/07/05 00:39:50;;;;;;;3.33;1.60;;;;;;;18.10;67.12;99796.13;345035;28;1565;-81
2022/07/05 00:40:03;;;;;;;3.67;1.70;;;;;;;18.10;66.94;99790.03;343879;28;1402;-81
2022/07/05 00:40:15;;;;;;;4.10;2.00;;;;;;;18.11;67.16;99789.94;345051;28;1142;-80
2022/07/05 00:40:27;;;;;;;3.03;1.90;;;;;;;18.13;66.68;99792.50;345662;28;863;-80
2022/07/05 00:40:39;;;;;;;2.50;1.75;;;;;;;18.14;65.84;99796.78;346036;28;1163;-80
2022/07/05 00:40:51;;;;;;;1.92;1.67;;;;;;;18.12;65.91;99788.16;345494;28;1786;-80
2022/07/05 00:41:03;;;;;;;1.90;1.67;;;;;;;18.12;65.59;99793.41;345777;28;761;-80
2022/07/05 00:41:15;;;;;;;2.15;1.75;;;;;;;18.12;65.79;99791.63;345029;28;1062;-80
2022/07/05 00:41:27;;;;;;;2.65;1.80;;;;;;;18.13;65.69;99797.75;345071;28;1693;-80
2022/07/05 00:41:39;;;;;;;2.88;1.80;;;;;;;18.11;65.61;99797.84;345177;28;1070;-80
2022/07/05 00:41:52;;;;;;;2.78;1.75;;;;;;;18.08;65.29;99791.91;345682;28;852;-80
2022/07/05 00:42:04;;;;;;;2.83;1.70;;;;;;;18.06;65.84;99788.53;345191;28;1129;-80
2022/07/05 00:42:16;;;;;;;2.50;1.70;;;;;;;18.05;65.99;99790.34;345183;28;1151;-80
2022/07/05 00:42:28;;;;;;;2.45;1.60;;;;;;;18.06;65.85;99794.63;346060;28;890;-80
2022/07/05 00:42:40;;;;;;;3.38;1.65;;;;;;;18.05;65.99;99792.97;345366;28;1171;-80
2022/07/05 00:42:52;;;;;;;4.20;1.80;;;;;;;18.04;65.94;99791.25;345569;28;2008;-80
2022/07/05 00:43:04;;;;;;;4.13;1.80;;;;;;;17.99;66.12;99788.06;345727;28;1410;-80
2022/07/05 00:43:16;;;;;;;3.65;1.80;;;;;;;18.01;66.26;99790.59;346290;28;1059;-80
2022/07/05 00:43:28;;;;;;;4.32;1.90;;;;;;;17.99;66.36;99789.84;345373;28;1595;-80
2022/07/05 00:44:00;;;;;;;4.50;2.10;;;;;;;17.95;66.61;99797.94;344593;28;1055;-80
2022/07/05 00:44:14;;;;;;;3.93;1.97;;;;;;;17.96;66.48;99796.97;345047;28;1756;-80
2022/07/05 00:44:31;;;;;;;3.90;1.92;;;;;;;17.97;66.53;99789.97;346960;28;1256;-80
2022/07/05 00:44:43;;;;;;;3.67;2.08;;;;;;;17.98;66.47;99785.53;343973;28;1903;-81
2022/07/05 00:44:56;;;;;;;4.00;1.92;;;;;;;17.98;66.88;99791.63;344672;28;2091;-81
2022/07/05 00:45:09;;;;;;;4.20;1.90;;;;;;;17.99;66.73;99788.06;345263;28;1215;-81
2022/07/05 00:45:21;;;;;;;3.45;1.80;;;;;;;18.01;66.69;99790.59;343835;28;1974;-81
2022/07/05 00:45:33;;;;;;;3.53;1.85;;;;;;;17.99;66.28;99789.84;344474;28;1195;-81
2022/07/05 00:45:45;;;;;;;3.20;1.80;;;;;;;18.02;66.25;99792.28;345979;28;753;-80
2022/07/05 00:45:57;;;;;;;3.25;1.83;;;;;;;18.02;66.25;99787.03;345871;28;1478;-81
2022/07/05 00:46:09;;;;;;;2.70;1.90;;;;;;;18.02;66.32;99790.50;344415;28;1692;-81
2022/07/05 00:46:22;;;;;;;3.03;1.90;;;;;;;18.03;66.46;99784.31;344587;28;1047;-81
2022/07/05 00:46:35;;;;;;;3.20;1.90;;;;;;;18.06;66.59;99791.16;343508;28;1599;-81
2022/07/05 00:46:47;;;;;;;4.70;1.80;;;;;;;18.05;66.81;99789.47;343975;28;2194;-81
2022/07/05 00:46:59;;;;;;;4.22;1.90;;;;;;;18.07;66.64;99791.09;343690;28;1793;-81
2022/07/05 00:47:12;;;;;;;5.60;1.90;;;;;;;18.08;66.78;99786.66;342918;28;1141;-81
2022/07/05 00:47:24;;;;;;;5.15;1.90;;;;;;;18.08;66.66;99782.22;343218;28;1780;-81
2022/07/05 00:47:36;;;;;;;5.45;1.80;;;;;;;18.10;66.32;99784.78;344776;28;1420;-81
2022/07/05 00:47:48;;;;;;;4.72;1.80;;;;;;;18.12;66.13;99782.91;344169;28;1600;-81
2022/07/05 00:48:00;;;;;;;4.80;1.60;;;;;;;18.13;65.93;99784.59;344089;28;1931;-81
2022/07/05 00:48:12;;;;;;;2.80;1.60;;;;;;;18.14;65.87;99791.53;345316;28;752;-81
2022/07/05 00:48:24;;;;;;;3.03;1.75;;;;;;;18.15;66.04;99793.25;345934;28;1149;-81
2022/07/05 00:48:36;;;;;;;3.83;1.90;;;;;;;18.14;65.73;99794.16;345604;28;1241;-81
2022/07/05 00:48:48;;;;;;;5.85;1.88;;;;;;;18.13;66.02;99790.69;345371;28;1586;-81
2022/07/05 00:49:01;;;;;;;6.40;1.90;;;;;;;18.12;66.38;99782.91;344948;28;1222;-81
2022/07/05 00:49:13;;;;;;;5.07;1.80;;;;;;;18.16;66.33;99789.66;344478;28;1087;-81
2022/07/05 00:49:25;;;;;;;4.30;1.80;;;;;;;18.15;66.26;99798.50;344695;28;1891;-81
2022/07/05 00:49:39;;;;;;;5.68;1.80;;;;;;;18.12;66.40;99782.91;344134;28;1338;-81
2022/07/05 00:49:51;;;;;;;6.28;1.80;;;;;;;18.11;66.33;99791.72;344090;28;1725;-81
2022/07/05 00:50:03;;;;;;;5.10;1.90;;;;;;;18.09;65.98;99788.34;344167;28;1166;-81
2022/07/05 00:50:15;;;;;;;3.92;2.10;;;;;;;18.05;66.14;99787.69;343726;28;1471;-81
2022/07/05 00:50:27;;;;;;;4.25;2.13;;;;;;;18.07;66.42;99793.72;344063;28;1700;-81
2022/07/05 00:50:41;;;;;;;4.40;1.98;;;;;;;18.07;66.04;99796.34;344658;28;744;-81
2022/07/05 00:50:56;;;;;;;3.33;1.70;;;;;;;18.08;66.28;99791.91;343829;28;1573;-81
2022/07/05 00:51:10;;;;;;;3.08;1.50;;;;;;;18.09;66.42;99793.59;344487;28;1804;-81
2022/07/05 00:51:23;;;;;;;2.70;1.60;;;;;;;18.10;65.88;99795.28;344397;28;978;-81
2022/07/05 00:51:37;;;;;;;2.38;1.50;;;;;;;18.12;65.95;99790.78;344018;28;1007;-81
2022/07/05 00:52:07;;;;;;;4.03;1.80;;;;;;;18.13;65.72;99795.13;344958;28;2063;-81
2022/07/05 00:52:35;;;;;;;3.17;1.77;;;;;;;18.15;65.83;99793.25;345730;28;851;-81
2022/07/05 00:52:47;;;;;;;2.65;1.70;;;;;;;18.15;65.85;99793.25;347031;28;1035;-81
2022/07/05 00:52:59;;;;;;;2.67;1.77;;;;;;;18.16;65.76;99797.56;345992;28;1139;-81
2022/07/05 00:53:11;;;;;;;4.35;1.88;;;;;;;18.14;66.05;99796.78;345709;28;1008;-81
2022/07/05 00:53:23;;;;;;;3.83;1.77;;;;;;;18.14;66.37;99796.78;346792;28;970;-81
2022/07/05 00:53:35;;;;;;;3.65;1.83;;;;;;;18.13;66.68;99795.97;347697;28;1634;-81
2022/07/05 00:53:49;;;;;;;3.25;2.00;;;;;;;18.14;66.85;99791.53;346531;28;2016;-81
2022/07/05 00:54:01;;;;;;;3.33;1.98;;;;;;;18.13;66.30;99795.97;346186;28;1152;-81
2022/07/05 00:54:13;;;;;;;2.88;1.65;;;;;;;18.15;66.26;99791.44;346886;28;769;-81
2022/07/05 00:54:27;;;;;;;3.20;1.70;;;;;;;18.16;65.82;99787.03;346541;28;1071;-81
2022/07/05 00:54:39;;;;;;;3.60;1.70;;;;;;;18.17;66.05;99796.63;344230;28;809;-81
2022/07/05 00:54:52;;;;;;;3.42;1.85;;;;;;;18.17;65.59;99794.81;343866;28;1043;-81
2022/07/05 00:55:05;;;;;;;3.55;1.80;;;;;;;18.19;66.12;99793.88;345615;28;1168;-81
2022/07/05 00:55:17;;;;;;;2.67;1.60;;;;;;;18.16;66.38;99792.28;345578;28;1184;-81
2022/07/05 00:55:29;;;;;;;3.40;1.73;;;;;;;18.18;66.57;99790.41;345772;28;1041;-81
2022/07/05 00:55:43;;;;;;;4.25;1.95;;;;;;;18.17;66.63;99796.63;345929;28;1078;-81
2022/07/05 00:55:56;;;;;;;5.07;2.00;;;;;;;18.18;66.80;99798.31;344856;28;1885;-81
2022/07/05 00:56:10;;;;;;;3.67;1.80;;;;;;;18.19;66.57;99800.00;346355;28;1703;-81
2022/07/05 00:56:24;;;;;;;3.05;1.65;;;;;;;18.19;66.79;99793.88;345584;28;1788;-80
2022/07/05 00:56:36;;;;;;;2.20;1.65;;;;;;;18.20;67.11;99796.41;342935;28;1657;-80
2022/07/05 00:56:48;;;;;;;2.55;1.75;;;;;;;18.19;67.05;99794.75;341513;28;1643;-80
2022/07/05 00:57:00;;;;;;;3.15;1.90;;;;;;;18.19;66.80;99792.13;342548;28;1570;-80
2022/07/05 00:57:12;;;;;;;2.75;1.80;;;;;;;18.19;66.37;99793.88;341218;29;1644;-80
2022/07/05 00:57:25;;;;;;;3.08;1.80;;;;;;;18.19;66.02;99794.75;340279;29;735;-80
2022/07/05 00:57:37;;;;;;;2.97;1.77;;;;;;;18.20;65.72;99790.31;338784;29;1044;-80
2022/07/05 00:57:50;;;;;;;3.80;1.83;;;;;;;18.22;65.68;99799.81;341055;28;1528;-80
2022/07/05 00:58:02;;;;;;;2.95;1.73;;;;;;;18.23;65.82;99790.97;341579;28;1223;-80
2022/07/05 00:58:14;;;;;;;2.03;1.67;;;;;;;18.22;66.21;99794.53;341568;28;1675;-81
2022/07/05 00:58:28;;;;;;;2.58;1.88;;;;;;;18.21;66.37;99792.88;341400;29;1116;-81
2022/07/05 00:58:40;;;;;;;4.15;2.00;;;;;;;18.19;66.41;99797.38;342947;28;1149;-81
2022/07/05 00:58:53;;;;;;;3.60;1.95;;;;;;;18.19;66.64;99794.75;342985;28;1658;-81
2022/07/05 00:59:05;;;;;;;2.88;1.90;;;;;;;18.21;66.88;99797.25;342948;28;1189;-81
2022/07/05 00:59:17;;;;;;;4.93;1.80;;;;;;;18.18;67.03;99795.66;342073;28;1528;-81
2022/07/05 00:59:30;;;;;;;5.28;1.70;;;;;;;18.18;67.05;99795.66;341301;28;1756;-81
2022/07/05 00:59:42;;;;;;;4.57;1.88;;;;;;;18.18;67.43;99787.78;341420;29;1126;-81
2022/07/05 00:59:54;;;;;;;4.90;1.90;;;;;;;18.19;67.19;99786.84;341808;28;1599;-81
2022/07/05 01:00:07;;;;;;;3.33;1.75;;;;;;;18.22;67.08;99793.69;341420;28;967;-81
2022/07/05 01:00:19;;;;;;;3.63;1.70;;;;;;;18.21;67.17;99792.88;341575;29;1159;-81
2022/07/05 01:00:31;;;;;;;3.00;1.73;;;;;;;18.23;67.08;99784.84;341717;29;1140;-81
2022/07/05 01:00:43;;;;;;;2.97;1.90;;;;;;;18.22;66.92;99788.44;342280;28;1832;-81
2022/07/05 01:00:55;;;;;;;3.67;2.00;;;;;;;18.21;66.77;99790.22;342715;28;1651;-81
2022/07/05 01:01:09;;;;;;;4.13;1.95;;;;;;;18.22;66.81;99789.28;344087;28;1415;-81